This is the latest recevied weather packets stored in our database for station/object WG5EEK. If no packets are shown the sender has not sent any weather packets the latest 10 day(s).
| Time | Temp. | Humidity | Pressure | Rain* | Wind** | Luminosity | Snow |
|---|---|---|---|---|---|---|---|
| 1777430161 | 20.56° C | 90% | 977.6 hPa | - | - | - | - |
| 1777428722 | 21.11° C | 91% | 976.3 hPa | - | - | - | - |
| 1777428002 | 21.67° C | 92% | 975.2 hPa | - | - | - | - |
| 1777426227 | 22.22° C | 94% | 973.6 hPa | - | - | - | - |
| 1777425481 | 22.22° C | 94% | 973.2 hPa | - | - | - | - |
| 1777421187 | 22.78° C | 92% | 971.6 hPa | - | - | - | - |
| 1777419721 | 22.78° C | 92% | 971.7 hPa | - | - | - | - |
| 1777417921 | 22.78° C | 91% | 970.9 hPa | - | - | - | - |
| 1777417201 | 22.78° C | 91% | 971.3 hPa | - | - | - | - |
| 1777415401 | 23.33° C | 90% | 969.5 hPa | - | - | - | - |
| 1777413986 | 23.33° C | 88% | 968.3 hPa | - | - | - | - |
| 1777411088 | 24.44° C | 86% | 967.5 hPa | - | - | - | - |
| 1777410748 | 24.44° C | 86% | 967.7 hPa | - | - | - | - |
| 1777410361 | 24.44° C | 86% | 967.7 hPa | - | - | - | - |
| 1777410002 | 25° C | 86% | 967.7 hPa | - | - | - | - |
| 1777409643 | 25° C | 87% | 967.8 hPa | - | - | - | - |
| 1777408562 | 25.56° C | 87% | 966.6 hPa | - | - | - | - |
| 1777408201 | 25.56° C | 87% | 966.5 hPa | - | - | - | - |
| 1777406427 | 26.67° C | 89% | 964 hPa | - | - | - | - |
| 1777404962 | 26.67° C | 91% | 964.1 hPa | - | - | - | - |
| 1777404242 | 26.11° C | 92% | 964.9 hPa | - | - | - | - |
| 1777398482 | 22.22° C | 93% | 972.6 hPa | - | - | - | - |
| 1777397041 | 22.22° C | 92% | 973 hPa | - | - | - | - |
| 1777396706 | 22.22° C | 92% | 973.3 hPa | - | - | - | - |
| 1777396347 | 22.22° C | 93% | 973.5 hPa | - | - | - | - |
* Rain since midnight (hover to see other rain measurements)
** Current wind speed in m/s (hover to see current wind gust speed)